Time;durP1;ratioP1;P1;durP2;ratioP2;P2;SDS_P1;SDS_P2;PMS_P1;PMS_P2;Temp;Humidity;BMP_temperature;BMP_pressure;BME280_temperature;BME280_humidity;BME280_pressure;Samples;Min_cycle;Max_cycle;Signal;HPM_P1;HPM_P2
2023/10/20 00:01:27;;;;;;;11.57;2.10;;;14.60;99.90;;;;;;4994211;28;20210;-74
2023/10/20 00:03:52;;;;;;;15.35;2.60;;;14.60;99.90;;;;;;4991724;28;20175;-74
2023/10/20 00:06:18;;;;;;;9.32;2.13;;;14.60;99.90;;;;;;4993937;28;20195;-75
2023/10/20 00:08:44;;;;;;;9.52;2.10;;;14.60;99.90;;;;;;4993824;28;20262;-75
2023/10/20 00:11:10;;;;;;;13.73;2.30;;;14.60;99.90;;;;;;4993900;28;20172;-75
2023/10/20 00:13:36;;;;;;;18.30;2.67;;;14.60;99.90;;;;;;4993853;28;20193;-74
2023/10/20 00:16:02;;;;;;;12.95;2.20;;;14.60;99.90;;;;;;4993905;28;20670;-74
2023/10/20 00:18:27;;;;;;;10.90;2.28;;;14.60;99.90;;;;;;4993724;28;20167;-75
2023/10/20 00:20:53;;;;;;;11.38;2.50;;;14.60;99.90;;;;;;4993369;28;20206;-75
2023/10/20 00:23:19;;;;;;;9.23;2.58;;;14.60;99.90;;;;;;4993825;28;20199;-74
2023/10/20 00:25:45;;;;;;;10.18;2.20;;;;;;;;;;4993649;28;20262;-75
2023/10/20 00:28:10;;;;;;;14.82;1.98;;;14.60;99.90;;;;;;4993354;28;20178;-75
2023/10/20 00:30:38;;;;;;;8.52;1.85;;;14.60;99.90;;;;;;4993126;28;20179;-74
2023/10/20 00:33:05;;;;;;;6.95;2.13;;;14.60;99.90;;;;;;4992994;28;20655;-75
2023/10/20 00:35:31;;;;;;;8.13;2.00;;;14.60;99.90;;;;;;4993044;28;20191;-75
2023/10/20 00:37:57;;;;;;;8.40;1.92;;;14.60;99.90;;;;;;4992842;28;20216;-74
2023/10/20 00:40:23;;;;;;;11.52;2.50;;;14.60;99.90;;;;;;4993278;28;20576;-74
2023/10/20 00:42:51;;;;;;;10.55;2.67;;;14.50;99.90;;;;;;4992759;28;20250;-74
2023/10/20 00:45:17;;;;;;;15.98;1.98;;;14.50;99.90;;;;;;4992982;28;20175;-74
2023/10/20 00:47:46;;;;;;;13.90;2.00;;;14.50;99.90;;;;;;4993131;28;20233;-74
2023/10/20 00:50:13;;;;;;;11.07;2.38;;;14.50;99.90;;;;;;4993086;28;20171;-74
2023/10/20 00:52:41;;;;;;;13.23;2.75;;;14.50;99.90;;;;;;4992977;28;20175;-74
2023/10/20 00:55:08;;;;;;;9.68;2.45;;;14.50;99.90;;;;;;4993059;28;20172;-74
2023/10/20 00:57:34;;;;;;;12.25;2.10;;;14.50;99.90;;;;;;4992975;28;20254;-74
2023/10/20 01:00:03;;;;;;;10.45;2.13;;;14.60;99.90;;;;;;4975306;28;20207;-74
2023/10/20 01:02:30;;;;;;;12.35;2.55;;;14.30;99.90;;;;;;4992782;28;20190;-74
2023/10/20 01:04:57;;;;;;;11.98;1.70;;;14.60;99.90;;;;;;4993283;28;20175;-74
2023/10/20 01:07:24;;;;;;;10.82;1.92;;;14.50;99.90;;;;;;4992731;28;20171;-74
2023/10/20 01:09:50;;;;;;;9.85;2.20;;;14.60;99.90;;;;;;4992669;28;20227;-74
2023/10/20 01:12:16;;;;;;;8.73;1.88;;;14.80;99.90;;;;;;4992779;28;20254;-74
2023/10/20 01:14:42;;;;;;;10.50;2.30;;;14.80;99.90;;;;;;4992607;28;20176;-74
2023/10/20 01:17:09;;;;;;;13.65;1.85;;;14.60;99.90;;;;;;4992829;28;20210;-74
2023/10/20 01:19:37;;;;;;;8.98;2.00;;;14.60;99.90;;;;;;4992706;28;20167;-74
2023/10/20 01:22:03;;;;;;;9.52;1.77;;;14.60;99.90;;;;;;4992789;28;20334;-74
2023/10/20 01:24:29;;;;;;;7.43;2.13;;;14.60;99.90;;;;;;4992615;28;20646;-74
2023/10/20 01:26:55;;;;;;;7.80;2.20;;;14.60;99.90;;;;;;4975169;28;20294;-74
2023/10/20 01:29:21;;;;;;;14.30;2.53;;;14.70;99.90;;;;;;4992367;28;20262;-74
2023/10/20 01:31:46;;;;;;;8.32;2.00;;;15.00;99.90;;;;;;4991996;28;20190;-74
2023/10/20 01:34:12;;;;;;;9.38;2.42;;;14.70;99.90;;;;;;4992423;28;20183;-74
2023/10/20 01:36:39;;;;;;;14.02;2.40;;;14.70;99.90;;;;;;4992510;28;20174;-75
2023/10/20 01:39:05;;;;;;;12.35;2.20;;;14.60;99.90;;;;;;4992239;28;20191;-74
2023/10/20 01:41:31;;;;;;;11.48;2.22;;;14.70;99.90;;;;;;4974849;28;20218;-75
2023/10/20 01:43:56;;;;;;;10.50;2.22;;;14.70;99.90;;;;;;4992178;28;20172;-74
2023/10/20 01:46:23;;;;;;;8.13;2.03;;;14.80;99.90;;;;;;4992256;28;20642;-75
2023/10/20 01:48:49;;;;;;;10.13;2.28;;;14.80;99.90;;;;;;4973918;28;20601;-74
2023/10/20 01:51:15;;;;;;;10.30;2.50;;;14.80;99.90;;;;;;4991814;28;20179;-74
2023/10/20 01:53:40;;;;;;;9.30;2.42;;;14.80;99.90;;;;;;4991935;28;20190;-74
2023/10/20 01:56:06;;;;;;;6.85;2.33;;;14.70;99.90;;;;;;4991446;28;20547;-74
2023/10/20 01:58:32;;;;;;;11.20;3.22;;;14.70;99.90;;;;;;4991735;28;20199;-74
2023/10/20 02:00:57;;;;;;;11.50;2.78;;;14.80;99.90;;;;;;4992152;28;20250;-74
2023/10/20 02:03:23;;;;;;;4.95;2.13;;;15.00;99.90;;;;;;4991972;28;20585;-74
2023/10/20 02:05:49;;;;;;;9.15;2.67;;;14.80;99.90;;;;;;4991926;28;20183;-74
2023/10/20 02:08:15;;;;;;;11.20;2.78;;;14.80;99.90;;;;;;4991570;28;20172;-74
2023/10/20 02:10:44;;;;;;;9.80;2.50;;;14.80;99.90;;;;;;4974312;28;20183;-74
2023/10/20 02:13:10;;;;;;;8.57;2.58;;;14.80;99.90;;;;;;4991670;28;20175;-74
2023/10/20 02:15:36;;;;;;;10.45;3.00;;;14.80;99.90;;;;;;4991774;28;20241;-74
2023/10/20 02:18:01;;;;;;;7.97;3.15;;;14.80;99.90;;;;;;4991841;28;20216;-74
2023/10/20 02:20:27;;;;;;;11.98;2.47;;;14.80;99.90;;;;;;4991569;28;20333;-74
2023/10/20 02:22:53;;;;;;;8.15;3.08;;;;;;;;;;4991691;28;20171;-74
2023/10/20 02:25:20;;;;;;;7.70;2.80;;;14.80;99.90;;;;;;4991689;28;20191;-74
2023/10/20 02:27:47;;;;;;;7.45;2.70;;;14.80;99.90;;;;;;4991332;28;20594;-74
2023/10/20 02:30:14;;;;;;;8.23;2.70;;;14.90;99.90;;;;;;4991437;28;20182;-74
2023/10/20 02:32:40;;;;;;;8.00;3.03;;;14.80;99.90;;;;;;4991559;28;20173;-74
2023/10/20 02:35:08;;;;;;;9.05;2.80;;;14.80;99.90;;;;;;4991453;28;20171;-74
2023/10/20 02:37:33;;;;;;;6.95;2.28;;;14.80;99.90;;;;;;4991719;28;20241;-74
2023/10/20 02:39:59;;;;;;;3.47;1.65;;;14.80;99.90;;;;;;4991320;28;20555;-74
2023/10/20 02:42:24;;;;;;;4.45;1.80;;;14.80;99.90;;;;;;4991485;28;20545;-74
2023/10/20 02:44:50;;;;;;;6.25;1.90;;;14.80;99.90;;;;;;4993847;28;20246;-74
2023/10/20 02:47:16;;;;;;;5.68;1.85;;;14.70;99.90;;;;;;4995550;28;20171;-74
2023/10/20 02:49:41;;;;;;;6.63;1.60;;;14.70;99.90;;;;;;4995473;28;20214;-74
2023/10/20 02:52:07;;;;;;;3.55;1.33;;;14.70;99.90;;;;;;4995519;28;20798;-74
2023/10/20 02:54:34;;;;;;;4.72;1.55;;;14.60;99.90;;;;;;4995372;28;20676;-74
2023/10/20 02:57:00;;;;;;;3.75;1.13;;;14.60;99.90;;;;;;4995204;28;20289;-74
2023/10/20 02:59:25;;;;;;;5.80;1.48;;;14.60;99.90;;;;;;4995203;28;20266;-74
2023/10/20 03:01:54;;;;;;;5.80;1.23;;;14.50;99.90;;;;;;4995077;28;20765;-74
2023/10/20 03:04:19;;;;;;;3.25;1.60;;;14.60;99.90;;;;;;4995192;28;20183;-74
2023/10/20 03:06:46;;;;;;;3.50;1.45;;;14.60;99.90;;;;;;4994731;28;20665;-74
2023/10/20 03:09:13;;;;;;;3.88;1.60;;;14.60;99.90;;;;;;4994985;28;20253;-74
2023/10/20 03:11:39;;;;;;;4.15;1.48;;;14.60;99.90;;;;;;4994526;28;20186;-74
2023/10/20 03:14:05;;;;;;;7.35;1.58;;;14.60;99.90;;;;;;4995121;28;20186;-74
2023/10/20 03:16:31;;;;;;;7.82;1.67;;;14.50;99.90;;;;;;4994647;28;20267;-74
2023/10/20 03:18:56;;;;;;;5.13;1.55;;;14.50;99.90;;;;;;4992982;28;20642;-74
2023/10/20 03:21:23;;;;;;;5.47;1.60;;;15.60;99.90;;;;;;4986069;28;20724;-74
2023/10/20 03:23:49;;;;;;;3.75;1.60;;;14.60;99.90;;;;;;4980161;28;20190;-74
2023/10/20 03:26:14;;;;;;;4.70;1.85;;;14.60;99.90;;;;;;4994314;28;20187;-74
2023/10/20 03:28:40;;;;;;;7.05;1.92;;;14.60;99.90;;;;;;4994406;28;20176;-74
2023/10/20 03:31:07;;;;;;;6.25;1.75;;;14.40;99.90;;;;;;4994205;28;20175;-75
2023/10/20 03:33:32;;;;;;;3.30;1.23;;;14.60;99.90;;;;;;4994330;28;20645;-74
2023/10/20 03:36:03;;;;;;;4.05;1.70;;;14.50;99.90;;;;;;4994333;28;20191;-74
2023/10/20 03:38:29;;;;;;;3.05;1.10;;;14.50;99.90;;;;;;4994360;28;20183;-74
2023/10/20 03:41:05;;;;;;;3.60;1.10;;;14.50;99.90;;;;;;4993727;28;20781;-74
2023/10/20 03:43:31;;;;;;;2.00;0.90;;;14.50;99.90;;;;;;4994338;28;20365;-74
2023/10/20 03:45:59;;;;;;;3.58;1.00;;;14.50;99.90;;;;;;4993489;28;20613;-75
2023/10/20 03:48:27;;;;;;;1.27;0.60;;;14.50;99.90;;;;;;4994388;28;20190;-74
2023/10/20 03:50:53;;;;;;;1.17;0.63;;;14.40;99.90;;;;;;4993987;28;20183;-73
2023/10/20 03:53:22;;;;;;;2.33;0.70;;;14.40;99.90;;;;;;4994185;28;20179;-74
2023/10/20 03:56:01;;;;;;;0.85;0.55;;;14.40;99.90;;;;;;4993783;28;20187;-74
2023/10/20 03:58:29;;;;;;;3.40;0.55;;;14.40;99.90;;;;;;4979846;28;20182;-74
2023/10/20 04:01:01;;;;;;;1.15;0.60;;;14.40;99.90;;;;;;4993857;28;20215;-74
2023/10/20 04:03:28;;;;;;;1.02;0.60;;;14.40;99.90;;;;;;4993707;28;20179;-73
2023/10/20 04:05:54;;;;;;;3.88;0.98;;;14.40;99.90;;;;;;4976155;28;20554;-74
2023/10/20 04:08:21;;;;;;;1.30;0.77;;;14.40;99.90;;;;;;4993715;28;20219;-74
2023/10/20 04:10:47;;;;;;;1.35;0.70;;;14.30;99.90;;;;;;4994219;28;20179;-74
2023/10/20 04:13:13;;;;;;;3.38;0.90;;;14.10;99.90;;;;;;4993749;28;20633;-74
2023/10/20 04:15:39;;;;;;;2.30;1.13;;;14.30;99.90;;;;;;4993869;28;20715;-74
2023/10/20 04:18:06;;;;;;;2.75;1.00;;;14.30;99.90;;;;;;4993870;28;20183;-74
2023/10/20 04:20:37;;;;;;;3.65;1.00;;;14.30;99.90;;;;;;4993830;28;20219;-73
2023/10/20 04:23:04;;;;;;;6.65;0.95;;;14.20;99.90;;;;;;4993833;28;20179;-73
2023/10/20 04:25:33;;;;;;;1.55;0.80;;;14.20;99.90;;;;;;4993628;28;20171;-73
2023/10/20 04:28:12;;;;;;;2.65;0.95;;;14.20;99.90;;;;;;4993741;28;20647;-73
2023/10/20 04:54:50;;;;;;;2.00;0.75;;;13.80;99.90;;;;;;4993354;28;20198;-73
2023/10/20 05:07:58;;;;;;;2.33;0.70;;;13.80;99.90;;;;;;4972826;28;20175;-74
2023/10/20 05:10:24;;;;;;;3.92;0.88;;;13.70;99.90;;;;;;4973439;28;20536;-74
2023/10/20 05:12:51;;;;;;;1.40;0.80;;;13.70;99.90;;;;;;4973467;28;20514;-74
2023/10/20 05:15:17;;;;;;;2.53;0.70;;;13.10;99.90;;;;;;4973638;28;20230;-74
2023/10/20 05:17:43;;;;;;;1.35;0.80;;;13.60;99.90;;;;;;4973501;28;20246;-74
2023/10/20 05:20:12;;;;;;;2.17;0.60;;;13.70;99.90;;;;;;4973680;28;20203;-74
2023/10/20 05:22:39;;;;;;;2.00;0.68;;;13.70;99.90;;;;;;4973183;28;20234;-74
2023/10/20 05:25:06;;;;;;;1.02;0.60;;;13.70;99.90;;;;;;4973427;28;20199;-74
2023/10/20 05:27:32;;;;;;;2.58;0.60;;;13.70;99.90;;;;;;4973090;28;20639;-74
2023/10/20 05:29:57;;;;;;;1.15;0.60;;;13.70;99.90;;;;;;4972957;28;20183;-74
2023/10/20 05:32:23;;;;;;;1.20;0.45;;;13.70;99.90;;;;;;4973168;28;20243;-74
2023/10/20 05:34:53;;;;;;;0.45;0.40;;;13.70;99.90;;;;;;4955833;28;20180;-74
2023/10/20 05:37:21;;;;;;;5.05;0.50;;;13.70;99.90;;;;;;4972944;28;20168;-74
2023/10/20 05:39:47;;;;;;;1.40;0.60;;;13.70;99.90;;;;;;4972748;28;20172;-75
2023/10/20 05:42:13;;;;;;;2.17;0.70;;;13.60;99.90;;;;;;4972977;28;20183;-75
2023/10/20 05:44:47;;;;;;;2.05;0.50;;;13.60;99.90;;;;;;4972871;28;20179;-75
2023/10/20 05:47:13;;;;;;;1.33;0.52;;;13.70;99.90;;;;;;4983494;28;20193;-75
2023/10/20 05:49:39;;;;;;;1.58;0.57;;;13.60;99.90;;;;;;4991843;28;20172;-74
2023/10/20 05:52:05;;;;;;;2.15;0.50;;;13.70;99.90;;;;;;4992125;28;21149;-74
2023/10/20 05:54:31;;;;;;;2.58;0.75;;;13.70;99.90;;;;;;4992119;28;20175;-74
2023/10/20 05:56:57;;;;;;;1.98;0.80;;;13.70;99.90;;;;;;4992059;28;20309;-74
2023/10/20 05:59:23;;;;;;;6.25;0.90;;;13.70;99.90;;;;;;4991818;28;20171;-74
2023/10/20 06:01:49;;;;;;;3.97;0.90;;;13.70;99.90;;;;;;4991891;28;20230;-75
2023/10/20 06:04:14;;;;;;;2.60;0.80;;;13.80;99.90;;;;;;4973559;28;20168;-74
2023/10/20 06:06:40;;;;;;;1.55;0.77;;;13.60;99.90;;;;;;4972512;28;20543;-74
2023/10/20 06:09:09;;;;;;;2.63;0.90;;;13.70;99.90;;;;;;4972268;28;20216;-74
2023/10/20 06:11:38;;;;;;;1.38;0.77;;;13.70;99.90;;;;;;4972454;28;20207;-75
2023/10/20 06:14:04;;;;;;;4.88;1.13;;;13.70;99.90;;;;;;4939565;28;20195;-74
2023/10/20 06:16:30;;;;;;;2.63;0.93;;;13.70;99.90;;;;;;4972255;28;20211;-74
2023/10/20 06:18:56;;;;;;;2.10;1.00;;;13.80;99.90;;;;;;4972109;28;20168;-75
2023/10/20 06:21:22;;;;;;;1.77;0.98;;;13.60;99.90;;;;;;4972232;28;20757;-74
2023/10/20 06:23:49;;;;;;;4.03;1.40;;;13.70;99.90;;;;;;4972108;28;20227;-74
2023/10/20 06:26:15;;;;;;;6.07;1.77;;;13.70;99.90;;;;;;4972375;28;20179;-74
2023/10/20 06:28:41;;;;;;;7.28;1.98;;;13.40;99.90;;;;;;4972128;28;20179;-75
2023/10/20 06:37:12;;;;;;;4.18;2.90;;;;;;;;;;4968744;28;20191;-74
2023/10/20 06:39:38;;;;;;;7.90;3.38;;;13.50;99.90;;;;;;4991253;28;20169;-74
2023/10/20 06:42:09;;;;;;;5.45;3.30;;;13.40;99.90;;;;;;4991351;28;20225;-74
2023/10/20 06:44:34;;;;;;;4.43;3.10;;;13.50;99.90;;;;;;4991676;28;20207;-74
2023/10/20 06:47:00;;;;;;;5.65;3.55;;;13.80;99.90;;;;;;4991086;28;20681;-75
2023/10/20 06:49:26;;;;;;;7.63;3.70;;;13.40;99.90;;;;;;4990431;28;20206;-75
2023/10/20 06:51:52;;;;;;;5.13;3.45;;;13.40;99.90;;;;;;4983685;28;20266;-74
2023/10/20 06:54:18;;;;;;;5.22;3.72;;;13.70;99.90;;;;;;4973157;28;20278;-75
2023/10/20 06:56:44;;;;;;;5.50;4.00;;;13.70;99.90;;;;;;4991283;28;20180;-75
2023/10/20 06:59:16;;;;;;;4.57;3.47;;;13.80;99.90;;;;;;4990964;28;20186;-75
2023/10/20 07:01:43;;;;;;;5.22;3.78;;;13.60;99.90;;;;;;4991208;28;20281;-75
2023/10/20 07:04:09;;;;;;;5.18;2.50;;;13.80;99.90;;;;;;4991136;28;20186;-75
2023/10/20 07:06:36;;;;;;;6.60;3.53;;;13.60;99.90;;;;;;4991107;28;20175;-75
2023/10/20 07:09:11;;;;;;;7.05;3.03;;;13.60;99.90;;;;;;4973579;28;20235;-76
2023/10/20 07:11:40;;;;;;;4.75;2.92;;;13.60;99.90;;;;;;4991080;28;20534;-74
2023/10/20 07:14:06;;;;;;;3.80;2.63;;;;;;;;;;4990724;28;20274;-75
2023/10/20 07:16:33;;;;;;;3.90;2.80;;;13.60;99.90;;;;;;4990929;28;20171;-75
2023/10/20 07:19:00;;;;;;;6.43;2.50;;;;;;;;;;4990947;28;20179;-75
2023/10/20 07:21:25;;;;;;;3.15;2.70;;;13.50;99.90;;;;;;4990886;28;20265;-76
2023/10/20 07:23:52;;;;;;;3.92;2.30;;;13.60;99.90;;;;;;4991184;28;20638;-74
2023/10/20 07:26:18;;;;;;;4.30;2.35;;;13.60;99.90;;;;;;4991262;28;20186;-75
2023/10/20 07:28:46;;;;;;;5.00;2.40;;;13.60;99.90;;;;;;4990858;28;20526;-74
2023/10/20 07:31:13;;;;;;;3.40;2.53;;;13.60;99.90;;;;;;4993352;28;20167;-74
2023/10/20 07:33:38;;;;;;;4.47;2.22;;;13.60;99.90;;;;;;4994362;28;20262;-75
2023/10/20 07:36:05;;;;;;;3.55;2.42;;;13.60;99.90;;;;;;4994589;28;20606;-74
2023/10/20 07:38:31;;;;;;;2.35;2.10;;;13.60;99.90;;;;;;4976864;28;20231;-74
2023/10/20 07:41:02;;;;;;;3.70;1.90;;;13.60;99.90;;;;;;4994463;28;20682;-74
2023/10/20 07:43:28;;;;;;;3.92;2.20;;;13.70;99.90;;;;;;4994267;28;20258;-74
2023/10/20 07:45:53;;;;;;;3.38;1.70;;;13.70;99.90;;;;;;4994463;28;20677;-74
2023/10/20 07:48:19;;;;;;;4.05;1.63;;;13.70;99.90;;;;;;4994086;28;20175;-75
2023/10/20 07:50:45;;;;;;;2.45;1.33;;;13.00;99.90;;;;;;4994315;28;20634;-74
2023/10/20 07:53:12;;;;;;;2.38;1.50;;;13.80;99.90;;;;;;4994247;28;20637;-75
2023/10/20 07:55:38;;;;;;;1.92;1.17;;;13.80;99.90;;;;;;4991516;28;20254;-75
2023/10/20 07:58:03;;;;;;;2.63;0.70;;;13.70;99.90;;;;;;4993998;28;20685;-74
2023/10/20 08:00:29;;;;;;;1.50;0.90;;;13.70;99.90;;;;;;4993718;28;20214;-74
2023/10/20 08:02:55;;;;;;;1.77;0.70;;;13.70;99.90;;;;;;4993513;28;20553;-75
2023/10/20 08:05:24;;;;;;;0.70;0.50;;;13.80;99.90;;;;;;4993623;28;20225;-74
2023/10/20 08:07:50;;;;;;;4.47;0.82;;;13.80;99.90;;;;;;4993596;28;20183;-74
2023/10/20 08:10:16;;;;;;;3.33;0.50;;;13.90;99.90;;;;;;4993326;28;20276;-74
2023/10/20 08:12:41;;;;;;;0.55;0.40;;;13.90;99.90;;;;;;4993866;28;20183;-74
2023/10/20 08:15:08;;;;;;;1.45;0.40;;;13.90;99.90;;;;;;4993504;28;20175;-77
2023/10/20 08:17:34;;;;;;;2.05;0.40;;;14.00;99.90;;;;;;4993614;28;20202;-72
2023/10/20 08:19:59;;;;;;;2.05;0.60;;;13.90;99.90;;;;;;4993812;28;20317;-72
2023/10/20 08:22:25;;;;;;;1.67;0.70;;;13.90;99.90;;;;;;4993570;28;20653;-73
2023/10/20 08:24:51;;;;;;;1.08;0.73;;;13.90;99.90;;;;;;4993620;28;20163;-72
2023/10/20 08:27:18;;;;;;;1.40;0.50;;;13.90;99.90;;;;;;4993041;28;20190;-74
2023/10/20 08:29:48;;;;;;;2.72;0.47;;;13.90;99.90;;;;;;4993388;28;20257;-72
2023/10/20 08:32:13;;;;;;;0.30;0.30;;;13.90;99.90;;;;;;4993406;28;20276;-72
2023/10/20 08:34:39;;;;;;;0.80;0.40;;;13.70;99.90;;;;;;4992739;28;20543;-73
2023/10/20 08:37:05;;;;;;;1.33;0.43;;;13.80;99.90;;;;;;4992911;28;20195;-73
2023/10/20 08:39:31;;;;;;;0.50;0.30;;;13.90;99.90;;;;;;4975975;28;20251;-74
2023/10/20 08:41:59;;;;;;;0.90;0.28;;;14.00;99.90;;;;;;4975535;28;20288;-74
2023/10/20 08:44:25;;;;;;;0.20;0.20;;;14.00;99.90;;;;;;4991982;28;20203;-74
2023/10/20 08:46:52;;;;;;;0.75;0.20;;;14.10;99.90;;;;;;4974584;28;20183;-72
2023/10/20 08:49:19;;;;;;;0.95;0.43;;;14.20;99.90;;;;;;4992842;28;20209;-74
2023/10/20 08:51:47;;;;;;;0.43;0.22;;;13.90;99.90;;;;;;4992807;28;20175;-75
2023/10/20 08:54:13;;;;;;;0.38;0.20;;;14.30;99.90;;;;;;4993237;28;20717;-74
2023/10/20 08:56:40;;;;;;;1.77;0.30;;;14.50;99.90;;;;;;4992748;28;20219;-74
2023/10/20 08:59:06;;;;;;;0.43;0.30;;;14.70;99.90;;;;;;4992924;28;20181;-73
2023/10/20 09:01:33;;;;;;;0.63;0.50;;;15.10;99.90;;;;;;4975506;28;20717;-73
2023/10/20 09:04:00;;;;;;;1.55;0.70;;;15.40;99.90;;;;;;4993067;28;20179;-73
2023/10/20 09:06:26;;;;;;;1.33;0.50;;;15.40;99.90;;;;;;4975419;28;20175;-73
2023/10/20 09:08:53;;;;;;;2.67;0.60;;;15.60;99.90;;;;;;4989400;28;20219;-74
2023/10/20 09:11:19;;;;;;;2.20;0.60;;;15.50;99.90;;;;;;4988279;28;20183;-73
2023/10/20 09:13:47;;;;;;;1.15;0.50;;;15.60;99.90;;;;;;4992491;28;20215;-73
2023/10/20 09:16:14;;;;;;;1.17;0.50;;;15.50;99.90;;;;;;4992664;28;20240;-74
2023/10/20 09:18:46;;;;;;;1.83;0.63;;;15.40;99.90;;;;;;4992819;28;20178;-74
2023/10/20 09:21:13;;;;;;;1.65;0.50;;;15.50;99.90;;;;;;4992458;28;20214;-73
2023/10/20 09:23:39;;;;;;;0.95;0.65;;;15.40;99.90;;;;;;4992643;28;20171;-73
2023/10/20 09:26:05;;;;;;;2.17;0.68;;;15.30;99.90;;;;;;4990912;28;20561;-74
2023/10/20 09:28:32;;;;;;;3.17;0.70;;;15.30;99.90;;;;;;4974856;28;20171;-72
2023/10/20 09:30:59;;;;;;;2.28;0.80;;;15.20;99.90;;;;;;4991697;28;20638;-72
2023/10/20 09:33:25;;;;;;;4.78;0.90;;;15.30;99.90;;;;;;4992180;28;20321;-72
2023/10/20 09:35:55;;;;;;;2.08;0.80;;;15.30;99.90;;;;;;4992439;28;20678;-72
2023/10/20 09:38:28;;;;;;;1.77;0.70;;;15.30;99.90;;;;;;4992294;28;20742;-73
2023/10/20 09:41:15;;;;;;;1.15;0.57;;;15.30;99.90;;;;;;4992096;28;20759;-73
2023/10/20 09:43:47;;;;;;;2.45;0.68;;;15.10;99.90;;;;;;4990650;28;20646;-74
2023/10/20 09:46:48;;;;;;;6.53;0.80;;;15.00;99.90;;;;;;4989946;28;20168;-75
2023/10/20 09:49:19;;;;;;;2.50;0.45;;;15.00;99.90;;;;;;4989432;28;20191;-75
2023/10/20 09:51:45;;;;;;;1.15;0.40;;;15.00;99.90;;;;;;4989768;28;20258;-74
2023/10/20 09:54:21;;;;;;;1.23;0.50;;;15.30;99.90;;;;;;4989844;28;20183;-74
2023/10/20 09:56:49;;;;;;;1.33;0.60;;;15.60;99.90;;;;;;4990093;28;20209;-74
2023/10/20 09:59:23;;;;;;;2.85;0.60;;;15.50;99.90;;;;;;4991098;28;20194;-74
2023/10/20 10:01:51;;;;;;;2.60;0.63;;;15.70;99.90;;;;;;4991879;28;20697;-74
2023/10/20 10:04:29;;;;;;;3.22;0.73;;;15.60;99.90;;;;;;4992131;28;20186;-74
2023/10/20 10:06:58;;;;;;;6.50;0.98;;;15.70;99.90;;;;;;4991560;28;20194;-74
2023/10/20 10:09:37;;;;;;;2.28;0.70;;;15.80;99.90;;;;;;4991154;28;20215;-74
2023/10/20 10:12:11;;;;;;;1.33;0.50;;;15.80;99.90;;;;;;4991376;28;20728;-72
2023/10/20 10:14:37;;;;;;;2.92;0.65;;;16.00;99.90;;;;;;4991842;28;20198;-74
2023/10/20 10:17:10;;;;;;;5.30;0.77;;;16.10;99.90;;;;;;4974017;28;20179;-74
2023/10/20 10:19:49;;;;;;;3.85;0.70;;;15.30;99.90;;;;;;4991689;28;20244;-74
2023/10/20 10:22:15;;;;;;;3.03;0.57;;;16.30;99.90;;;;;;4991730;28;20226;-74
2023/10/20 10:24:51;;;;;;;4.82;0.77;;;16.20;99.90;;;;;;4991203;28;20183;-74
2023/10/20 10:27:19;;;;;;;2.42;0.73;;;16.50;99.90;;;;;;4973850;28;20268;-72
2023/10/20 10:29:53;;;;;;;3.25;0.95;;;16.40;99.90;;;;;;4991419;28;20250;-73
2023/10/20 10:32:20;;;;;;;5.95;1.10;;;16.50;99.90;;;;;;4991504;28;20180;-73
2023/10/20 10:34:48;;;;;;;4.35;1.15;;;16.50;99.90;;;;;;4991024;28;20654;-73
2023/10/20 10:37:18;;;;;;;5.40;1.17;;;16.80;99.90;;;;;;4990804;28;20175;-73
2023/10/20 10:39:44;;;;;;;4.10;1.23;;;16.70;99.90;;;;;;4991447;28;20250;-73
2023/10/20 10:42:11;;;;;;;6.95;1.60;;;;;;;;;;4990650;28;20179;-73
2023/10/20 10:44:37;;;;;;;5.55;1.02;;;16.50;99.90;;;;;;4991402;28;20273;-73
2023/10/20 10:47:04;;;;;;;6.45;1.40;;;16.40;99.90;;;;;;4972899;28;20426;-73
2023/10/20 10:49:32;;;;;;;5.90;1.35;;;16.50;99.90;;;;;;4990878;28;20202;-72
2023/10/20 10:51:58;;;;;;;2.92;0.90;;;16.40;99.90;;;;;;4973688;28;20179;-73
2023/10/20 10:54:26;;;;;;;3.92;1.25;;;16.50;99.90;;;;;;4991304;28;20623;-73
2023/10/20 10:56:52;;;;;;;5.40;1.20;;;16.50;99.90;;;;;;4991184;28;20171;-73
2023/10/20 10:59:19;;;;;;;5.10;1.40;;;16.80;99.90;;;;;;4987393;28;20476;-74
2023/10/20 11:01:46;;;;;;;5.38;1.00;;;16.80;99.90;;;;;;4990413;28;20297;-76
2023/10/20 11:04:12;;;;;;;10.32;1.35;;;16.80;99.90;;;;;;4990429;28;20199;-74
2023/10/20 11:06:38;;;;;;;9.57;1.58;;;16.50;99.90;;;;;;4964737;28;20184;-74
2023/10/20 11:09:19;;;;;;;9.90;1.05;;;16.40;99.90;;;;;;4992241;28;20229;-74
2023/10/20 11:11:48;;;;;;;4.70;1.08;;;16.60;99.90;;;;;;4995257;28;20262;-73
2023/10/20 11:14:17;;;;;;;6.03;1.23;;;16.60;99.90;;;;;;4995084;28;20643;-72
2023/10/20 11:16:43;;;;;;;5.80;1.35;;;16.60;99.90;;;;;;4994083;28;20175;-72
2023/10/20 11:19:12;;;;;;;7.80;1.63;;;16.90;99.90;;;;;;4994673;28;20258;-72
2023/10/20 11:21:55;;;;;;;7.22;1.60;;;17.10;99.90;;;;;;4994374;28;20211;-71
2023/10/20 11:24:28;;;;;;;7.95;1.95;;;17.30;99.90;;;;;;4993434;28;20177;-72
2023/10/20 11:26:56;;;;;;;6.95;1.70;;;17.60;99.90;;;;;;4994773;28;20230;-73
2023/10/20 11:29:22;;;;;;;6.50;1.65;;;17.60;99.90;;;;;;4994487;28;20171;-72
2023/10/20 11:31:48;;;;;;;6.20;1.63;;;17.50;99.90;;;;;;4977527;28;20650;-72
2023/10/20 11:34:14;;;;;;;6.93;1.85;;;17.40;99.90;;;;;;4992034;28;20179;-73
2023/10/20 11:36:40;;;;;;;12.07;2.10;;;;;;;;;;4975128;28;20922;-73
2023/10/20 11:39:06;;;;;;;8.25;1.88;;;17.50;99.90;;;;;;4974822;28;20172;-71
2023/10/20 11:41:32;;;;;;;8.13;2.10;;;17.30;99.90;;;;;;4976146;28;20254;-72
2023/10/20 11:43:58;;;;;;;9.50;1.83;;;17.30;99.90;;;;;;4994422;28;20198;-72
2023/10/20 11:46:23;;;;;;;7.03;2.05;;;17.20;99.90;;;;;;4994416;28;20183;-73
2023/10/20 11:48:49;;;;;;;6.30;2.03;;;17.20;99.90;;;;;;4994581;28;20176;-72
2023/10/20 11:51:15;;;;;;;5.93;1.80;;;17.30;99.90;;;;;;4994561;28;20186;-72
2023/10/20 11:53:41;;;;;;;8.45;1.90;;;17.20;99.90;;;;;;4994348;28;20177;-72
2023/10/20 11:56:06;;;;;;;10.00;2.38;;;17.30;99.90;;;;;;4994278;28;20170;-72
2023/10/20 11:58:33;;;;;;;10.52;2.10;;;;;;;;;;4993890;28;20167;-72
2023/10/20 12:00:59;;;;;;;9.23;2.15;;;17.60;99.90;;;;;;4994126;28;20221;-73
2023/10/20 12:03:25;;;;;;;7.68;2.13;;;;;;;;;;4994194;28;20201;-72
2023/10/20 12:05:51;;;;;;;9.27;2.00;;;17.80;99.90;;;;;;4993831;28;20187;-73
2023/10/20 12:08:17;;;;;;;10.80;2.17;;;17.70;99.90;;;;;;4976674;28;20218;-73
2023/10/20 12:10:43;;;;;;;7.57;1.92;;;17.70;99.90;;;;;;4993864;28;20519;-74
2023/10/20 12:13:08;;;;;;;7.38;1.77;;;18.40;99.90;;;;;;4993321;28;20645;-74
2023/10/20 12:15:36;;;;;;;8.80;1.80;;;;;;;;;;4993321;28;20237;-74
2023/10/20 12:18:02;;;;;;;11.57;1.77;;;;;;;;;;4960353;28;20943;-74
2023/10/20 12:20:30;;;;;;;5.80;1.67;;;;;;;;;;4993778;28;20242;-73
2023/10/20 12:22:58;;;;;;;4.78;1.20;;;19.60;99.90;;;;;;4992474;28;20172;-74
2023/10/20 12:25:25;;;;;;;4.25;1.30;;;19.90;99.90;;;;;;4993575;28;20210;-74
2023/10/20 12:27:51;;;;;;;5.88;1.52;;;;;;;;;;4993254;28;20167;-73
2023/10/20 12:30:17;;;;;;;4.68;1.52;;;20.10;99.90;;;;;;4992957;28;20187;-74
2023/10/20 12:32:43;;;;;;;6.93;1.30;;;20.20;99.90;;;;;;4993551;28;20669;-74
2023/10/20 12:35:12;;;;;;;2.72;1.00;;;;;;;;;;4993601;28;20222;-74
2023/10/20 12:37:38;;;;;;;3.13;1.40;;;21.00;99.90;;;;;;4993345;28;20186;-75
2023/10/20 12:40:05;;;;;;;5.40;1.13;;;21.00;99.90;;;;;;4993146;28;20171;-75
2023/10/20 12:42:32;;;;;;;3.25;0.82;;;23.20;99.90;;;;;;4993562;28;20177;-76
2023/10/20 12:45:03;;;;;;;4.10;1.15;;;;;;;;;;4993718;28;20194;-76
2023/10/20 12:47:28;;;;;;;6.40;1.10;;;25.40;99.90;;;;;;4993065;28;20171;-75
2023/10/20 12:49:54;;;;;;;4.40;0.98;;;25.60;99.90;;;;;;4993020;28;20210;-76
2023/10/20 12:52:20;;;;;;;3.15;0.90;;;;;;;;;;4993136;28;20218;-75
2023/10/20 12:54:46;;;;;;;6.03;1.25;;;;;;;;;;4993013;28;20179;-77
2023/10/20 12:57:16;;;;;;;4.85;0.93;;;28.10;99.90;;;;;;4992972;28;20634;-76
2023/10/20 12:59:42;;;;;;;2.03;0.65;;;26.50;1.00;;;;;;4993109;28;20233;-77
2023/10/20 13:02:07;;;;;;;1.08;0.50;;;23.70;99.90;;;;;;4991772;28;20616;-76
2023/10/20 13:04:33;;;;;;;1.30;0.70;;;23.60;1.00;;;;;;4992983;28;20175;-75
2023/10/20 13:06:59;;;;;;;2.08;0.70;;;22.10;1.00;;;;;;4992725;28;20209;-75
2023/10/20 13:09:25;;;;;;;4.82;0.80;;;21.30;99.90;;;;;;4975379;28;20311;-77
2023/10/20 13:11:51;;;;;;;2.10;0.60;;;20.20;1.00;;;;;;4992508;28;20183;-75
2023/10/20 13:14:16;;;;;;;2.58;0.85;;;20.00;1.00;;;;;;4977643;28;20183;-74
2023/10/20 13:16:42;;;;;;;2.03;0.93;;;19.20;1.00;;;;;;4991254;28;20190;-74
2023/10/20 13:19:08;;;;;;;2.28;0.90;;;;;;;;;;4992335;28;20709;-74
2023/10/20 13:21:34;;;;;;;6.25;0.80;;;;;;;;;;4992491;28;20580;-74
2023/10/20 13:23:59;;;;;;;5.07;0.98;;;20.00;1.00;;;;;;4992054;28;20179;-75
2023/10/20 13:26:26;;;;;;;7.75;1.27;;;19.90;1.00;;;;;;4991743;28;20183;-75
2023/10/20 13:28:52;;;;;;;4.68;1.02;;;;;;;;;;4991416;28;20175;-74
2023/10/20 13:31:21;;;;;;;6.53;0.95;;;;;;;;;;4992278;28;20181;-74
2023/10/20 13:33:48;;;;;;;5.22;1.15;;;20.60;99.90;;;;;;4992218;28;20171;-74